Station Historical Data
Daily Summary for March 6, 2018 Units:  Metric    English   Both
« Previous Day
Next Day »
Daily Weekly Monthly Yearly Custom
  High: Low: Average:
Temperature: 2.7 °C -3.8 °C -0.7 °C
Dew Point: -0.8 °C -7.1 °C -4.3 °C
Humidity: 88% 65% 77%
Wind Speed: 17.7km/h 0km/h 3.7km/h
Wind Gust: 24.1km/h - -
Wind- - East
Pressure: 1021.2 hPa 1007.3 hPa -
Precipitation: 0 mm    
Historical Graphs
 
 
Tabular Data for March 6, 2018
Time Temperature Dew Point Pressure Wind Wind Speed Wind Gust Humidity Rainfall Rate (Hourly)
00:04 -3.6 °C -6.9 °C 1021.2 hPa Calm     78% 0 mm
00:09 -3.7 °C -6.9 °C 1021.2 hPa Calm     78% 0 mm
00:14 -3.6 °C -6.9 °C 1020.9 hPa Calm     78% 0 mm
00:19 -3.6 °C -6.9 °C 1020.9 hPa Calm   4.8 km/h 78% 0 mm
00:24 -3.6 °C -6.8 °C 1020.9 hPa Calm   6.4 km/h 78% 0 mm
00:29 -3.6 °C -6.8 °C 1020.9 hPa Calm   4.8 km/h 78% 0 mm
00:34 -3.6 °C -6.8 °C 1020.9 hPa SSE 1.6 km/h 4.8 km/h 78% 0 mm
00:39 -3.6 °C -6.8 °C 1020.5 hPa Calm   4.8 km/h 78% 0 mm
00:44 -3.6 °C -6.8 °C 1020.5 hPa SE 1.6 km/h 6.4 km/h 78% 0 mm
00:49 -3.6 °C -6.8 °C 1020.9 hPa Calm   9.7 km/h 78% 0 mm
00:54 -3.6 °C -6.8 °C 1020.5 hPa ESE 4.8 km/h 6.4 km/h 78% 0 mm
00:59 -3.6 °C -6.9 °C 1020.5 hPa Calm   4.8 km/h 78% 0 mm
01:04 -3.6 °C -6.9 °C 1020.5 hPa ESE 4.8 km/h 6.4 km/h 78% 0 mm
01:09 -3.6 °C -6.9 °C 1020.5 hPa ESE 1.6 km/h 6.4 km/h 78% 0 mm
01:14 -3.7 °C -6.9 °C 1020.5 hPa ESE 1.6 km/h 8 km/h 78% 0 mm
01:19 -3.7 °C -6.9 °C 1020.5 hPa ESE 1.6 km/h 8 km/h 78% 0 mm
01:24 -3.7 °C -6.9 °C 1020.5 hPa ESE 1.6 km/h 8 km/h 78% 0 mm
01:29 -3.7 °C -6.9 °C 1020.5 hPa SE 4.8 km/h 9.7 km/h 78% 0 mm
01:34 -3.7 °C -7 °C 1020.5 hPa ESE 3.2 km/h 8 km/h 78% 0 mm
01:39 -3.7 °C -7 °C 1020.5 hPa SSE 6.4 km/h 8 km/h 78% 0 mm
01:44 -3.8 °C -7.1 °C 1020.5 hPa SE 3.2 km/h 9.7 km/h 78% 0 mm
01:49 -3.8 °C -6.9 °C 1020.5 hPa ESE 3.2 km/h 8 km/h 79% 0 mm
01:54 -3.7 °C -6.8 °C 1020.5 hPa Calm   3.2 km/h 79% 0 mm
01:59 -3.7 °C -6.8 °C 1020.5 hPa SE 1.6 km/h 6.4 km/h 79% 0 mm
02:04 -3.7 °C -6.8 °C 1020.5 hPa SE 1.6 km/h 8 km/h 79% 0 mm
02:09 -3.7 °C -6.8 °C 1020.2 hPa Calm   6.4 km/h 79% 0 mm
02:14 -3.7 °C -6.8 °C 1020.2 hPa Calm   3.2 km/h 79% 0 mm
02:19 -3.6 °C -6.7 °C 1019.9 hPa Calm   3.2 km/h 79% 0 mm
02:24 -3.6 °C -6.8 °C 1019.9 hPa Calm     78% 0 mm
02:29 -3.5 °C -6.8 °C 1019.5 hPa Calm     78% 0 mm
02:34 -3.4 °C -6.7 °C 1019.5 hPa Calm     78% 0 mm
02:39 -3.4 °C -6.7 °C 1019.5 hPa Calm   6.4 km/h 78% 0 mm
02:44 -3.4 °C -6.7 °C 1019.2 hPa SE 3.2 km/h 6.4 km/h 78% 0 mm
02:49 -3.3 °C -6.6 °C 1019.2 hPa SSE 1.6 km/h 6.4 km/h 78% 0 mm
02:54 -3.3 °C -6.6 °C 1019.2 hPa SE 1.6 km/h 6.4 km/h 78% 0 mm
02:59 -3.3 °C -6.6 °C 1019.2 hPa SE 1.6 km/h 4.8 km/h 78% 0 mm
03:04 -3.2 °C -6.5 °C 1019.2 hPa SSE 6.4 km/h 8 km/h 78% 0 mm
03:09 -3.2 °C -6.4 °C 1019.2 hPa SSE 3.2 km/h 6.4 km/h 78% 0 mm
03:14 -3.1 °C -6.6 °C 1019.2 hPa Calm   4.8 km/h 77% 0 mm
03:19 -3.1 °C -6.6 °C 1019.2 hPa Calm   3.2 km/h 77% 0 mm
03:24 -3.1 °C -6.3 °C 1019.2 hPa Calm   4.8 km/h 78% 0 mm
03:29 -3.1 °C -6.3 °C 1018.8 hPa SSE 1.6 km/h 4.8 km/h 78% 0 mm
03:34 -3.1 °C -6.5 °C 1018.8 hPa SSE 1.6 km/h 4.8 km/h 77% 0 mm
03:39 -3 °C -6.4 °C 1018.5 hPa Calm   4.8 km/h 77% 0 mm
03:45 -3 °C -6.4 °C 1018.5 hPa SE 1.6 km/h 6.4 km/h 77% 0 mm
03:54 -3 °C -6.3 °C 1018.2 hPa Calm   6.4 km/h 78% 0 mm
03:59 -2.9 °C -6.2 °C 1018.2 hPa SE 1.6 km/h 6.4 km/h 78% 0 mm
04:04 -2.9 °C -6.4 °C 1018.2 hPa SE 3.2 km/h 6.4 km/h 77% 0 mm
04:09 -2.9 °C -6.4 °C 1018.2 hPa SE 3.2 km/h 4.8 km/h 77% 0 mm
04:14 -2.9 °C -6.4 °C 1018.2 hPa SE 4.8 km/h 6.4 km/h 77% 0 mm
04:19 -2.9 °C -6.3 °C 1018.2 hPa Calm   4.8 km/h 77% 0 mm
04:24 -2.9 °C -6.4 °C 1017.8 hPa SE 4.8 km/h 4.8 km/h 77% 0 mm
04:30 -2.9 °C -6.4 °C 1017.8 hPa SE 1.6 km/h 8 km/h 77% 0 mm
04:39 -3 °C -6.4 °C 1017.8 hPa East 3.2 km/h 8 km/h 77% 0 mm
04:44 -3 °C -6.3 °C 1017.5 hPa ENE 1.6 km/h 8 km/h 78% 0 mm
04:49 -2.9 °C -6.2 °C 1017.5 hPa East 1.6 km/h 8 km/h 78% 0 mm
04:54 -2.9 °C -6.2 °C 1017.8 hPa East 3.2 km/h 8 km/h 78% 0 mm
04:59 -2.9 °C -6.2 °C 1017.5 hPa ESE 6.4 km/h 8 km/h 78% 0 mm
05:04 -2.8 °C -6.1 °C 1017.5 hPa East 9.7 km/h 9.7 km/h 78% 0 mm
05:09 -2.8 °C -6.3 °C 1017.5 hPa East 3.2 km/h 9.7 km/h 77% 0 mm
05:14 -2.8 °C -6.1 °C 1017.5 hPa ESE 1.6 km/h 6.4 km/h 78% 0 mm
05:19 -2.8 °C -6.1 °C 1017.5 hPa SE 3.2 km/h 8 km/h 78% 0 mm
05:24 -2.8 °C -6.1 °C 1017.2 hPa SSE 4.8 km/h 12.9 km/h 78% 0 mm
05:29 -2.7 °C -6 °C 1017.2 hPa Calm   8 km/h 78% 0 mm
05:34 -2.7 °C -6.2 °C 1017.2 hPa SE 3.2 km/h 9.7 km/h 77% 0 mm
05:44 -2.7 °C -6.2 °C 1017.2 hPa ESE 4.8 km/h 12.9 km/h 77% 0 mm
05:49 -2.6 °C -6.1 °C 1016.8 hPa ESE 3.2 km/h 12.9 km/h 77% 0 mm
05:54 -2.6 °C -6.1 °C 1016.8 hPa ESE 3.2 km/h 12.9 km/h 77% 0 mm
05:59 -2.6 °C -6.1 °C 1016.8 hPa ESE 3.2 km/h 11.3 km/h 77% 0 mm
06:04 -2.6 °C -6.2 °C 1017.2 hPa ESE 3.2 km/h 11.3 km/h 76% 0 mm
06:09 -2.6 °C -6.2 °C 1017.2 hPa ESE 4.8 km/h 12.9 km/h 76% 0 mm
06:14 -2.6 °C -6.2 °C 1017.2 hPa ESE 6.4 km/h 16.1 km/h 76% 0 mm
06:19 -2.6 °C -6.2 °C 1016.8 hPa SSE 3.2 km/h 9.7 km/h 76% 0 mm
06:24 -2.6 °C -6.2 °C 1016.8 hPa SE 12.9 km/h 12.9 km/h 76% 0 mm
06:29 -2.6 °C -6.2 °C 1016.8 hPa Calm   12.9 km/h 76% 0 mm
06:34 -2.6 °C -6.2 °C 1016.8 hPa Calm   12.9 km/h 76% 0 mm
06:39 -2.6 °C -6.2 °C 1016.8 hPa East 3.2 km/h 12.9 km/h 76% 0 mm
06:44 -2.6 °C -6.2 °C 1016.8 hPa ESE 3.2 km/h 11.3 km/h 76% 0 mm
06:49 -2.6 °C -6.2 °C 1016.5 hPa Calm   12.9 km/h 76% 0 mm
06:54 -2.6 °C -6.2 °C 1016.5 hPa ESE 4.8 km/h 14.5 km/h 76% 0 mm
06:59 -2.6 °C -6.2 °C 1016.5 hPa ESE 4.8 km/h 14.5 km/h 76% 0 mm
07:04 -2.6 °C -6.2 °C 1016.5 hPa East 4.8 km/h 14.5 km/h 76% 0 mm
07:09 -2.6 °C -6.2 °C 1016.5 hPa ESE 4.8 km/h 14.5 km/h 76% 0 mm
07:14 -2.6 °C -6.2 °C 1016.5 hPa ESE 4.8 km/h 14.5 km/h 76% 0 mm
07:19 -2.6 °C -6.4 °C 1016.1 hPa East 4.8 km/h 16.1 km/h 75% 0 mm
07:24 -2.6 °C -6.4 °C 1016.1 hPa East 6.4 km/h 20.9 km/h 75% 0 mm
07:29 -2.6 °C -6.4 °C 1016.1 hPa East 1.6 km/h 12.9 km/h 75% 0 mm
07:34 -2.5 °C -6.3 °C 1016.1 hPa ENE 4.8 km/h 17.7 km/h 75% 0 mm
07:39 -2.4 °C -6.3 °C 1016.1 hPa ESE 6.4 km/h 16.1 km/h 75% 0 mm
07:44 -2.3 °C -6.2 °C 1016.1 hPa East 1.6 km/h 14.5 km/h 75% 0 mm
07:49 -2.2 °C -6.1 °C 1016.1 hPa East 8 km/h 14.5 km/h 75% 0 mm
07:54 -2.2 °C -6 °C 1016.1 hPa ESE 3.2 km/h 14.5 km/h 75% 0 mm
07:59 -2.2 °C -6.2 °C 1016.1 hPa ENE 4.8 km/h 14.5 km/h 74% 0 mm
08:04 -2.1 °C -6.1 °C 1016.1 hPa East 6.4 km/h 22.5 km/h 74% 0 mm
08:09 -1.9 °C -5.9 °C 1015.8 hPa East 8 km/h 22.5 km/h 74% 0 mm
08:14 -1.8 °C -5.8 °C 1015.8 hPa ESE 8 km/h 14.5 km/h 74% 0 mm
08:19 -1.8 °C -6.1 °C 1015.8 hPa ESE 8 km/h 19.3 km/h 73% 0 mm
08:24 -1.9 °C -6.1 °C 1015.8 hPa ESE 8 km/h 19.3 km/h 73% 0 mm
08:29 -1.9 °C -6.2 °C 1015.8 hPa ESE 6.4 km/h 17.7 km/h 73% 0 mm
08:34 -1.9 °C -5.9 °C 1015.8 hPa East 9.7 km/h 12.9 km/h 74% 0 mm
08:39 -1.8 °C -5.8 °C 1015.8 hPa NE 3.2 km/h 16.1 km/h 74% 0 mm
08:44 -1.9 °C -5.9 °C 1015.5 hPa SE 8 km/h 11.3 km/h 74% 0 mm
08:49 -1.8 °C -5.8 °C 1015.5 hPa SSE 8 km/h 17.7 km/h 74% 0 mm
08:54 -1.8 °C -5.8 °C 1015.5 hPa SE 6.4 km/h 17.7 km/h 74% 0 mm
08:59 -1.8 °C -5.8 °C 1015.5 hPa ESE 8 km/h 9.7 km/h 74% 0 mm
09:04 -1.4 °C -5.5 °C 1015.1 hPa ESE 3.2 km/h 11.3 km/h 74% 0 mm
09:09 -1.5 °C -5.9 °C 1015.1 hPa SE 4.8 km/h 20.9 km/h 72% 0 mm
09:14 -1.8 °C -6 °C 1015.1 hPa East 6.4 km/h 20.9 km/h 73% 0 mm
09:19 -1.9 °C -6.1 °C 1015.1 hPa East 6.4 km/h 20.9 km/h 73% 0 mm
09:24 -1.8 °C -6.1 °C 1015.1 hPa East 6.4 km/h 20.9 km/h 73% 0 mm
09:29 -1.4 °C -5.7 °C 1015.1 hPa East 6.4 km/h 16.1 km/h 73% 0 mm
09:34 -1.3 °C -5.7 °C 1014.8 hPa East 6.4 km/h 16.1 km/h 72% 0 mm
09:39 -1.2 °C -5.6 °C 1014.8 hPa SE 6.4 km/h 14.5 km/h 72% 0 mm
09:44 -0.8 °C -5.4 °C 1014.4 hPa ESE 6.4 km/h 12.9 km/h 71% 0 mm
09:49 -0.9 °C -5.5 °C 1014.4 hPa ESE 6.4 km/h 16.1 km/h 71% 0 mm
09:54 -0.9 °C -5.6 °C 1014.4 hPa East 4.8 km/h 17.7 km/h 71% 0 mm
09:59 -0.9 °C -5.5 °C 1014.1 hPa East 8 km/h 16.1 km/h 71% 0 mm
10:04 -0.8 °C -5.4 °C 1014.1 hPa ESE 11.3 km/h 16.1 km/h 71% 0 mm
10:09 -0.6 °C -5.2 °C 1014.1 hPa SE 4.8 km/h 16.1 km/h 71% 0 mm
10:14 -0.5 °C -5.3 °C 1013.8 hPa SSE 6.4 km/h 16.1 km/h 70% 0 mm
10:19 -0.4 °C -5.4 °C 1013.4 hPa ENE 6.4 km/h 14.5 km/h 69% 0 mm
10:24 -0.3 °C -5.3 °C 1013.4 hPa East 6.4 km/h 17.7 km/h 69% 0 mm
10:29 -0.2 °C -5.4 °C 1013.4 hPa East 6.4 km/h 22.5 km/h 68% 0 mm
10:34 -0.2 °C -5.4 °C 1013.1 hPa East 8 km/h 22.5 km/h 68% 0 mm
10:39 -0.1 °C -5.3 °C 1013.1 hPa East 8 km/h 20.9 km/h 68% 0 mm
10:44 -0.1 °C -5.3 °C 1013.1 hPa ENE 8 km/h 22.5 km/h 68% 0 mm
10:49 -0.1 °C -5.3 °C 1013.1 hPa ENE 8 km/h 22.5 km/h 68% 0 mm
10:54 0.2 °C -4.8 °C 1013.1 hPa ENE 8 km/h 16.1 km/h 69% 0 mm
10:59 0.3 °C -4.9 °C 1013.1 hPa East 9.7 km/h 14.5 km/h 68% 0 mm
11:04 0.2 °C -5.2 °C 1013.1 hPa SSE 4.8 km/h 17.7 km/h 67% 0 mm
11:09 0.2 °C -5.2 °C 1012.8 hPa NE 4.8 km/h 17.7 km/h 67% 0 mm
11:14 0.1 °C -5.1 °C 1012.8 hPa NE 9.7 km/h 16.1 km/h 68% 0 mm
11:19 0.3 °C -4.7 °C 1012.8 hPa ENE 1.6 km/h 14.5 km/h 69% 0 mm
11:24 0.3 °C -5.1 °C 1012.8 hPa East 8 km/h 17.7 km/h 67% 0 mm
11:29 0.5 °C -4.7 °C 1012.4 hPa ENE 6.4 km/h 17.7 km/h 68% 0 mm
11:34 0.6 °C -4.6 °C 1012.4 hPa ENE 6.4 km/h 14.5 km/h 68% 0 mm
11:39 1.1 °C -4.4 °C 1012.1 hPa ENE 6.4 km/h 20.9 km/h 67% 0 mm
11:44 1.1 °C -4.6 °C 1012.1 hPa ENE 8 km/h 20.9 km/h 66% 0 mm
11:49 0.9 °C -4.8 °C 1012.1 hPa ENE 9.7 km/h 17.7 km/h 66% 0 mm
11:54 1 °C -4.7 °C 1011.7 hPa ENE 8 km/h 17.7 km/h 66% 0 mm
11:59 1 °C -4.7 °C 1011.7 hPa ENE 8 km/h 17.7 km/h 66% 0 mm
12:04 1.2 °C -4.5 °C 1011.4 hPa NE 9.7 km/h 20.9 km/h 66% 0 mm
12:09 1.2 °C -4.4 °C 1011.4 hPa NE 6.4 km/h 14.5 km/h 66% 0 mm
12:14 1.1 °C -4.7 °C 1011.4 hPa NE 9.7 km/h 17.7 km/h 65% 0 mm
12:19 1 °C -4.7 °C 1011.1 hPa East 4.8 km/h 14.5 km/h 66% 0 mm
12:24 1.2 °C -4.5 °C 1011.1 hPa ENE 8 km/h 14.5 km/h 66% 0 mm
12:29 1.2 °C -4.3 °C 1010.7 hPa NE 11.3 km/h 22.5 km/h 67% 0 mm
12:34 1.1 °C -4.4 °C 1010.7 hPa ESE 3.2 km/h 12.9 km/h 67% 0 mm
12:39 1.3 °C -4.1 °C 1010.4 hPa ENE 8 km/h 16.1 km/h 67% 0 mm
12:44 1.1 °C -4.3 °C 1010.4 hPa NE 9.7 km/h 20.9 km/h 67% 0 mm
12:49 0.9 °C -4.3 °C 1010.4 hPa NE 9.7 km/h 24.1 km/h 68% 0 mm
12:54 0.7 °C -4.5 °C 1010 hPa NE 11.3 km/h 24.1 km/h 68% 0 mm
12:59 0.8 °C -4.4 °C 1010 hPa NE 12.9 km/h 22.5 km/h 68% 0 mm
13:04 0.8 °C -4.4 °C 1010 hPa ENE 9.7 km/h 19.3 km/h 68% 0 mm
13:09 0.9 °C -4.5 °C 1009.7 hPa East 11.3 km/h 19.3 km/h 67% 0 mm
13:14 0.9 °C -4.3 °C 1009.7 hPa ENE 9.7 km/h 19.3 km/h 68% 0 mm
13:19 0.9 °C -4.1 °C 1009.7 hPa NE 9.7 km/h 20.9 km/h 69% 0 mm
13:24 1.2 °C -4.1 °C 1009.4 hPa NE 9.7 km/h 19.3 km/h 68% 0 mm
13:29 1.2 °C -4.1 °C 1009.4 hPa NE 12.9 km/h 19.3 km/h 68% 0 mm
13:34 1.2 °C -4.1 °C 1009.4 hPa NNE 8 km/h 19.3 km/h 68% 0 mm
13:39 1.2 °C -3.8 °C 1009.4 hPa NE 9.7 km/h 17.7 km/h 69% 0 mm
13:44 1.2 °C -4.1 °C 1009.4 hPa NE 6.4 km/h 17.7 km/h 68% 0 mm
13:49 1.2 °C -4.1 °C 1009 hPa NE 9.7 km/h 22.5 km/h 68% 0 mm
13:54 1.1 °C -4.2 °C 1009 hPa NE 11.3 km/h 22.5 km/h 68% 0 mm
13:59 1.3 °C -3.8 °C 1009 hPa NE 11.3 km/h 20.9 km/h 69% 0 mm
14:04 1.3 °C -3.9 °C 1008.7 hPa ENE 8 km/h 20.9 km/h 68% 0 mm
14:09 1.4 °C -3.9 °C 1008.7 hPa NE 9.7 km/h 20.9 km/h 68% 0 mm
14:14 1.4 °C -3.8 °C 1008.7 hPa NE 11.3 km/h 19.3 km/h 68% 0 mm
14:19 1.4 °C -3.8 °C 1008.7 hPa NE 11.3 km/h 17.7 km/h 68% 0 mm
14:24 1.5 °C -3.8 °C 1008.7 hPa NE 9.7 km/h 20.9 km/h 68% 0 mm
14:29 1.6 °C -3.7 °C 1008.7 hPa NE 17.7 km/h 24.1 km/h 68% 0 mm
14:34 1.6 °C -3.9 °C 1008.7 hPa East 8 km/h 17.7 km/h 67% 0 mm
14:39 1.6 °C -3.7 °C 1008.7 hPa ENE 8 km/h 17.7 km/h 68% 0 mm
14:44 1.7 °C -3.6 °C 1008.7 hPa ENE 3.2 km/h 14.5 km/h 68% 0 mm
14:49 1.7 °C -3.6 °C 1008.7 hPa NE 9.7 km/h 16.1 km/h 68% 0 mm
14:54 1.8 °C -3.7 °C 1008.4 hPa NE 8 km/h 14.5 km/h 67% 0 mm
14:59 1.9 °C -3.6 °C 1008.4 hPa ENE 6.4 km/h 14.5 km/h 67% 0 mm
15:04 1.9 °C -3.8 °C 1008.4 hPa ENE 6.4 km/h 17.7 km/h 66% 0 mm
15:09 1.9 °C -3.6 °C 1008.4 hPa ENE 8 km/h 17.7 km/h 67% 0 mm
15:14 1.9 °C -3.6 °C 1008.4 hPa NE 6.4 km/h 14.5 km/h 67% 0 mm
15:19 2 °C -3.5 °C 1008.4 hPa NE 4.8 km/h 11.3 km/h 67% 0 mm
15:24 2.1 °C -3.4 °C 1008.4 hPa NE 4.8 km/h 11.3 km/h 67% 0 mm
15:30 2.2 °C -3.1 °C 1008.7 hPa NE 4.8 km/h 9.7 km/h 68% 0 mm
15:39 2.2 °C -3.3 °C 1008.4 hPa NE 4.8 km/h 11.3 km/h 67% 0 mm
15:44 2.2 °C -3.3 °C 1008.4 hPa NE 6.4 km/h 14.5 km/h 67% 0 mm
15:49 2.3 °C -3.2 °C 1008.4 hPa NE 4.8 km/h 12.9 km/h 67% 0 mm
15:55 2.3 °C -3.2 °C 1008.4 hPa NE 3.2 km/h 9.7 km/h 67% 0 mm
16:00 2.4 °C -3.1 °C 1008.7 hPa NE 3.2 km/h 11.3 km/h 67% 0 mm
16:05 2.4 °C -3.1 °C 1008.7 hPa ENE 3.2 km/h 6.4 km/h 67% 0 mm
16:10 2.5 °C -3 °C 1008.7 hPa ENE 3.2 km/h 6.4 km/h 67% 0 mm
16:19 2.6 °C -2.7 °C 1009 hPa East 1.6 km/h 8 km/h 68% 0 mm
16:24 2.7 °C -2.7 °C 1009 hPa ESE 1.6 km/h 8 km/h 68% 0 mm
16:29 2.7 °C -2.2 °C 1009 hPa SSE 1.6 km/h 8 km/h 70% 0 mm
16:34 2.6 °C -1.7 °C 1009 hPa South 4.8 km/h 8 km/h 73% 0 mm
16:39 2.3 °C -1.8 °C 1009 hPa South 4.8 km/h 8 km/h 74% 0 mm
16:44 2.1 °C -1.7 °C 1008.7 hPa SSE 4.8 km/h 8 km/h 76% 0 mm
16:49 1.9 °C -1.6 °C 1009 hPa SSE 1.6 km/h 6.4 km/h 78% 0 mm
16:54 1.7 °C -1.6 °C 1009 hPa Calm   3.2 km/h 79% 0 mm
16:59 1.6 °C -1.3 °C 1009 hPa Calm     81% 0 mm
17:04 1.6 °C -1.2 °C 1008.7 hPa Calm     82% 0 mm
17:09 1.4 °C -1.3 °C 1008.7 hPa Calm   3.2 km/h 82% 0 mm
17:14 1.4 °C -1.1 °C 1008.7 hPa SE 1.6 km/h 4.8 km/h 83% 0 mm
17:19 1.4 °C -0.9 °C 1008.7 hPa ENE 1.6 km/h 6.4 km/h 84% 0 mm
17:24 1.4 °C -0.9 °C 1008.7 hPa NE 3.2 km/h 8 km/h 84% 0 mm
17:29 1.4 °C -0.9 °C 1009 hPa NE 4.8 km/h 8 km/h 84% 0 mm
17:39 1.4 °C -0.8 °C 1009 hPa NE 3.2 km/h 4.8 km/h 85% 0 mm
17:44 1.3 °C -0.9 °C 1009 hPa Calm   4.8 km/h 85% 0 mm
17:49 1.3 °C -0.9 °C 1009 hPa Calm   4.8 km/h 85% 0 mm
17:54 1.3 °C -0.9 °C 1009.4 hPa Calm   3.2 km/h 85% 0 mm
17:59 1.3 °C -0.9 °C 1009.4 hPa Calm   1.6 km/h 85% 0 mm
18:04 1.3 °C -0.9 °C 1009.4 hPa Calm   4.8 km/h 85% 0 mm
18:09 1.3 °C -0.8 °C 1009.4 hPa Calm     86% 0 mm
18:14 1.3 °C -0.8 °C 1009.4 hPa Calm     86% 0 mm
18:19 1.3 °C -0.8 °C 1009.4 hPa Calm     86% 0 mm
18:24 1.3 °C -0.8 °C 1009.4 hPa Calm     86% 0 mm
18:29 1.3 °C -0.8 °C 1009.4 hPa Calm     86% 0 mm
18:34 1.2 °C -0.9 °C 1009.4 hPa Calm     86% 0 mm
18:39 1.2 °C -0.9 °C 1009.4 hPa NNE 1.6 km/h 8 km/h 86% 0 mm
18:44 1.2 °C -0.9 °C 1009.4 hPa NNE 1.6 km/h 8 km/h 86% 0 mm
18:49 1.2 °C -0.9 °C 1009.4 hPa NE 1.6 km/h 6.4 km/h 86% 0 mm
18:54 1.2 °C -0.9 °C 1009.7 hPa Calm   4.8 km/h 86% 0 mm
18:59 1.2 °C -0.9 °C 1009.7 hPa Calm   3.2 km/h 86% 0 mm
19:04 1.1 °C -1 °C 1009.7 hPa Calm   3.2 km/h 86% 0 mm
19:09 1 °C -0.9 °C 1009.7 hPa Calm     87% 0 mm
19:14 1.1 °C -0.9 °C 1009.7 hPa Calm   3.2 km/h 87% 0 mm
19:19 1 °C -0.9 °C 1009.4 hPa NE 4.8 km/h 6.4 km/h 87% 0 mm
19:24 0.9 °C -1 °C 1009.4 hPa NE 4.8 km/h 8 km/h 87% 0 mm
19:29 0.8 °C -1.1 °C 1009.4 hPa ENE 4.8 km/h 8 km/h 87% 0 mm
19:34 0.8 °C -1.2 °C 1009.4 hPa NE 3.2 km/h 9.7 km/h 86% 0 mm
19:39 0.8 °C -1.3 °C 1009 hPa ENE 3.2 km/h 9.7 km/h 86% 0 mm
19:44 0.7 °C -1.3 °C 1009 hPa East 3.2 km/h 8 km/h 86% 0 mm
19:49 0.7 °C -1.3 °C 1009 hPa East 3.2 km/h 8 km/h 86% 0 mm
19:54 0.7 °C -1.4 °C 1008.7 hPa East 3.2 km/h 9.7 km/h 86% 0 mm
19:59 0.6 °C -1.5 °C 1009 hPa East 1.6 km/h 4.8 km/h 86% 0 mm
20:04 0.5 °C -1.6 °C 1009 hPa Calm   1.6 km/h 86% 0 mm
20:09 0.4 °C -1.7 °C 1009 hPa Calm   1.6 km/h 86% 0 mm
20:14 0.3 °C -1.7 °C 1009 hPa Calm     86% 0 mm
20:19 0.4 °C -1.7 °C 1009.4 hPa Calm     86% 0 mm
20:24 0.4 °C -1.6 °C 1009.4 hPa Calm     86% 0 mm
20:29 0.4 °C -1.7 °C 1009.4 hPa Calm     86% 0 mm
20:34 0.3 °C -1.8 °C 1009 hPa Calm     86% 0 mm
20:39 0.1 °C -1.9 °C 1009 hPa Calm     86% 0 mm
20:44 0 °C -2.1 °C 1009 hPa Calm     86% 0 mm
20:49 -0.1 °C -1.9 °C 1009 hPa Calm     87% 0 mm
20:54 -0.1 °C -1.9 °C 1009 hPa Calm     87% 0 mm
20:59 -0.2 °C -2.1 °C 1009 hPa Calm     87% 0 mm
21:04 -0.2 °C -2.1 °C 1009 hPa Calm     87% 0 mm
21:09 -0.3 °C -2.2 °C 1008.7 hPa Calm     87% 0 mm
21:14 -0.3 °C -2.2 °C 1008.7 hPa Calm     87% 0 mm
21:19 -0.3 °C -2.2 °C 1008.7 hPa Calm     87% 0 mm
21:24 -0.3 °C -2.2 °C 1008.7 hPa Calm     87% 0 mm
21:29 -0.3 °C -2.2 °C 1008.4 hPa Calm     87% 0 mm
21:34 -0.4 °C -2.3 °C 1008.4 hPa Calm     87% 0 mm
21:39 -0.5 °C -2.2 °C 1008.4 hPa Calm     88% 0 mm
21:44 -0.6 °C -2.3 °C 1008.4 hPa Calm     88% 0 mm
21:49 -0.6 °C -2.3 °C 1008.4 hPa Calm     88% 0 mm
21:54 -0.6 °C -2.3 °C 1008.4 hPa Calm     88% 0 mm
21:59 -0.7 °C -2.4 °C 1008.4 hPa Calm     88% 0 mm
22:04 -0.7 °C -2.4 °C 1008.4 hPa Calm     88% 0 mm
22:09 -0.7 °C -2.4 °C 1008.4 hPa Calm     88% 0 mm
22:14 -0.7 °C -2.4 °C 1008.4 hPa Calm     88% 0 mm
22:19 -0.8 °C -2.5 °C 1008.4 hPa Calm     88% 0 mm
22:24 -0.7 °C -2.4 °C 1008.4 hPa Calm     88% 0 mm
22:29 -0.8 °C -2.5 °C 1008.4 hPa Calm     88% 0 mm
22:34 -0.8 °C -2.5 °C 1008 hPa Calm     88% 0 mm
22:39 -0.8 °C -2.6 °C 1008 hPa Calm     88% 0 mm
22:44 -0.8 °C -2.5 °C 1008 hPa Calm     88% 0 mm
22:49 -0.7 °C -2.4 °C 1008 hPa Calm     88% 0 mm
22:54 -0.7 °C -2.6 °C 1008 hPa Calm     87% 0 mm
22:59 -0.8 °C -2.7 °C 1008 hPa Calm     87% 0 mm
23:04 -0.8 °C -2.7 °C 1007.7 hPa Calm     87% 0 mm
23:09 -0.9 °C -2.8 °C 1008 hPa Calm     87% 0 mm
23:14 -0.9 °C -2.8 °C 1007.7 hPa Calm     87% 0 mm
23:19 -0.9 °C -2.9 °C 1007.7 hPa Calm     86% 0 mm
23:24 -0.9 °C -3 °C 1007.7 hPa Calm     86% 0 mm
23:29 -0.9 °C -2.9 °C 1007.7 hPa Calm   4.8 km/h 86% 0 mm
23:34 -0.9 °C -3 °C 1007.7 hPa Calm   3.2 km/h 86% 0 mm
23:39 -1.1 °C -3.3 °C 1007.7 hPa Calm   3.2 km/h 85% 0 mm
23:44 -1 °C -3.1 °C 1007.3 hPa Calm   4.8 km/h 86% 0 mm
23:49 -1.1 °C -3.3 °C 1007.3 hPa Calm     85% 0 mm
23:54 -1.2 °C -3.4 °C 1007.3 hPa Calm     85% 0 mm
23:59 -1.4 °C -3.6 °C 1007.3 hPa Calm     85% 0 mm
Buffalo, New York, USA
Compliments of Weather Underground - 2.5 mb